FKYS/NSI METAR and TAF weather

Enter ICAO airport designator
Station Type Date Time Source
FKYS METAR 2020/06/01 15:00 UTC NOAA

FKYS 011500Z 16005KT 110V190 9999 BKN020 28/23 Q1015 NOSIG


Station Type Date Time Source
FKYS Decoded METAR 2020/06/01 15:00 UTC NOAA

Yaounde, Cameroon (FKYS) 03-50N 011-31E 760M
Jun 01, 2020 - 11:00 AM EDT / 2020.06.01 1500 UTC
Wind: from the SSE (160 degrees) at 6 MPH (5 KT) (direction variable):0
Visibility: greater than 7 mile(s):0
Sky conditions: mostly cloudy
Temperature: 82 F (28 C)
Dew Point: 73 F (23 C)
Relative Humidity: 74%
Pressure (altimeter): 29.97 in. Hg (1015 hPa)
ob: FKYS 011500Z 16005KT 110V190 9999 BKN020 28/23 Q1015 NOSIG
cycle: 15

Station Type Date Time Source
FKYS TAF 2020/06/01 12:08 UTC NOAA

TAF FKYS 011100Z 0112/0212 18005KT 9999 SCT010
BECMG 0120/0122 BKN006
BECMG 0206/0208 BKN016

Example: see airport list